Terminal Aerodrome Forecast
Issued by NWS

Home | Current Version | Previous Version | Text Only | Print | Product List | Glossary On
Versions: 1 2 3 4 5 6 7 8 9 10 11 12 13 14 15 16 17
352
FTUS42 KILM 260540
TAFCRE
TAF
KCRE 260540Z 2606/2706 VRB03KT P6SM SCT025 BKN250
     FM260900 05003KT P6SM VCTS SCT020 BKN050CB
     FM261500 09007KT P6SM VCTS SCT025CB BKN060 PROB30 2615/2620 4SM
      -TSRA OVC015CB
     FM262100 11009KT P6SM SCT025 BKN100
     FM270200 08005KT P6SM SCT250=

USA.gov is the U.S. government's official web portal to all federal, state and local government web resources and services.